Time;durP1;ratioP1;P1;durP2;ratioP2;P2;SDS_P1;SDS_P2;PMS_P1;PMS_P2;Temp;Humidity;BMP_temperature;BMP_pressure;BME280_temperature;BME280_humidity;BME280_pressure;Samples;Min_cycle;Max_cycle;Signal;HPM_P1;HPM_P2
2023/09/25 00:00:43;;;;;;;0.00;0.00;;;;;;;15.27;100.00;100235.69;4856866;29;20457;-74
2023/09/25 00:03:08;;;;;;;0.00;0.00;;;;;;;15.30;100.00;100237.84;4838748;29;20035;-74
2023/09/25 00:05:34;;;;;;;0.00;0.00;;;;;;;15.26;100.00;100234.91;4865819;29;20429;-73
2023/09/25 00:08:01;;;;;;;0.00;0.00;;;;;;;15.32;100.00;100227.38;4833025;29;20030;-73
2023/09/25 00:10:29;;;;;;;0.00;0.00;;;;;;;15.32;100.00;100221.84;4848146;29;20039;-73
2023/09/25 00:12:55;;;;;;;0.00;0.00;;;;;;;15.41;100.00;100242.06;4829571;29;21029;-73
2023/09/25 00:15:20;;;;;;;0.00;0.00;;;;;;;15.43;100.00;100239.81;4828608;29;20024;-74
2023/09/25 00:17:46;;;;;;;0.00;0.00;;;;;;;15.43;100.00;100227.97;4826860;29;20080;-73
2023/09/25 00:20:11;;;;;;;0.00;0.00;;;;;;;15.47;100.00;100237.28;4843851;29;20989;-73
2023/09/25 00:22:38;;;;;;;0.00;0.00;;;;;;;15.42;100.00;100232.69;4852328;29;20079;-73
2023/09/25 00:25:04;;;;;;;0.00;0.00;;;;;;;15.51;100.00;100244.63;4829883;29;20601;-73
2023/09/25 00:27:31;;;;;;;0.00;0.00;;;;;;;15.51;100.00;100247.38;4859788;29;20033;-74
2023/09/25 00:29:57;;;;;;;0.00;0.00;;;;;;;15.53;100.00;100256.16;4843451;29;20037;-73
2023/09/25 00:32:23;;;;;;;0.00;0.00;;;;;;;15.56;100.00;100248.41;4827762;29;20128;-74
2023/09/25 00:34:48;;;;;;;0.00;0.00;;;;;;;15.59;100.00;100242.31;4832376;29;20033;-73
2023/09/25 00:37:14;;;;;;;0.00;0.00;;;;;;;15.59;100.00;100256.09;4844216;29;20459;-73
2023/09/25 00:39:41;;;;;;;0.00;0.00;;;;;;;15.61;100.00;100251.06;4822951;29;20477;-73
2023/09/25 00:42:07;;;;;;;0.00;0.00;;;;;;;15.68;100.00;100262.50;4825075;29;20033;-74
2023/09/25 00:44:32;;;;;;;0.00;0.00;;;;;;;15.71;100.00;100261.91;4856510;29;20515;-73
2023/09/25 00:46:58;;;;;;;0.00;0.00;;;;;;;15.74;100.00;100260.47;4856573;29;20047;-73
2023/09/25 00:49:23;;;;;;;0.00;0.00;;;;;;;15.76;100.00;100267.34;4832758;29;20037;-73
2023/09/25 00:51:49;;;;;;;0.00;0.00;;;;;;;15.73;100.00;100259.69;4840291;29;20045;-74
2023/09/25 00:54:18;;;;;;;0.00;0.00;;;;;;;15.74;100.00;100261.31;4843081;29;20045;-72
2023/09/25 00:56:45;;;;;;;0.00;0.00;;;;;;;15.75;100.00;100260.19;4824163;29;20048;-74
2023/09/25 00:59:11;;;;;;;0.00;0.00;;;;;;;15.76;100.00;100275.59;4857735;29;20456;-73
2023/09/25 01:01:37;;;;;;;0.00;0.00;;;;;;;15.82;100.00;100268.91;4838432;29;20025;-71
2023/09/25 01:04:03;;;;;;;0.00;0.00;;;;;;;15.84;100.00;100265.84;4869876;29;20060;-74
2023/09/25 01:06:29;;;;;;;0.00;0.00;;;;;;;15.82;100.00;100260.63;4825767;29;20472;-72
2023/09/25 01:08:54;;;;;;;0.08;0.08;;;;;;;15.76;100.00;100259.06;4862854;29;20037;-73
2023/09/25 01:11:20;;;;;;;0.00;0.00;;;;;;;15.77;100.00;100260.72;4837593;29;20037;-74
2023/09/25 01:13:45;;;;;;;0.00;0.00;;;;;;;15.77;100.00;100265.38;4856701;29;20690;-72
2023/09/25 01:16:11;;;;;;;0.00;0.00;;;;;;;15.82;100.00;100262.56;4858947;29;20751;-72
2023/09/25 01:18:36;;;;;;;0.00;0.00;;;;;;;15.87;100.00;100267.97;4847069;29;20053;-73
2023/09/25 01:21:03;;;;;;;0.00;0.00;;;;;;;15.86;100.00;100267.16;4848000;29;20070;-76
2023/09/25 01:23:28;;;;;;;0.00;0.00;;;;;;;15.94;100.00;100282.19;4851372;29;20030;-73
2023/09/25 01:25:54;;;;;;;0.00;0.00;;;;;;;15.98;100.00;100282.41;4856113;29;20037;-73
2023/09/25 01:28:19;;;;;;;0.00;0.00;;;;;;;15.97;100.00;100280.75;4854161;29;20092;-72
2023/09/25 01:30:45;;;;;;;0.00;0.00;;;;;;;16.03;100.00;100291.41;4823856;29;20061;-73
2023/09/25 01:33:10;;;;;;;0.00;0.00;;;;;;;16.05;100.00;100288.31;4844046;29;20089;-73
2023/09/25 01:35:35;;;;;;;0.00;0.00;;;;;;;16.02;100.00;100289.75;4849203;29;20033;-73
2023/09/25 01:38:04;;;;;;;0.00;0.00;;;;;;;16.03;100.00;100301.59;4846245;29;20037;-73
2023/09/25 01:40:50;;;;;;;0.00;0.00;;;;;;;16.00;100.00;100302.19;4852924;29;20033;-75
2023/09/25 01:43:15;;;;;;;0.00;0.00;;;;;;;15.81;100.00;100300.38;4863412;29;20087;-72
2023/09/25 01:45:40;;;;;;;0.00;0.00;;;;;;;15.65;100.00;100301.72;4834098;29;20124;-73
2023/09/25 01:48:06;;;;;;;0.00;0.00;;;;;;;15.54;100.00;100307.41;4832601;29;20061;-74
2023/09/25 01:50:32;;;;;;;0.00;0.00;;;;;;;15.42;100.00;100309.84;4850371;29;20029;-74
2023/09/25 01:53:00;;;;;;;0.00;0.00;;;;;;;15.32;100.00;100310.00;4871667;29;20029;-74
2023/09/25 01:55:34;;;;;;;0.00;0.00;;;;;;;15.32;100.00;100310.81;4863044;29;20468;-73
2023/09/25 01:57:59;;;;;;;0.00;0.00;;;;;;;15.46;100.00;100324.66;4833400;29;20904;-74
2023/09/25 02:00:24;;;;;;;0.00;0.00;;;;;;;15.44;100.00;100329.63;4857708;29;20061;-75
2023/09/25 02:02:50;;;;;;;0.00;0.00;;;;;;;15.37;100.00;100331.94;4860489;29;20033;-74
2023/09/25 02:05:15;;;;;;;0.00;0.00;;;;;;;15.28;100.00;100329.06;4833260;29;20024;-72
2023/09/25 02:07:41;;;;;;;0.00;0.00;;;;;;;15.23;100.00;100331.06;4855157;29;20464;-73
2023/09/25 02:10:07;;;;;;;0.00;0.00;;;;;;;15.28;100.00;100331.81;4843558;29;20368;-74
2023/09/25 02:12:33;;;;;;;0.00;0.00;;;;;;;15.27;100.00;100340.38;4849448;29;20085;-75
2023/09/25 02:15:02;;;;;;;0.00;0.00;;;;;;;15.27;100.00;100340.38;4850586;29;20025;-73
2023/09/25 02:17:29;;;;;;;0.00;0.00;;;;;;;15.21;100.00;100336.88;4852801;29;20495;-73
2023/09/25 02:20:11;;;;;;;0.00;0.00;;;;;;;15.18;100.00;100332.78;4834728;29;20036;-74
2023/09/25 02:22:36;;;;;;;0.00;0.00;;;;;;;15.08;100.00;100332.13;4837839;29;20033;-73
2023/09/25 02:25:02;;;;;;;0.00;0.00;;;;;;;14.94;100.00;100321.06;4854088;29;20422;-73
2023/09/25 02:27:28;;;;;;;0.00;0.00;;;;;;;14.96;100.00;100340.84;4859909;29;20121;-73
2023/09/25 02:29:53;;;;;;;0.00;0.00;;;;;;;14.85;100.00;100326.41;4811909;29;20169;-74
2023/09/25 02:32:19;;;;;;;0.00;0.00;;;;;;;14.84;100.00;100333.84;4831900;29;20033;-74
2023/09/25 02:34:44;;;;;;;0.10;0.10;;;;;;;14.78;100.00;100332.28;4828844;29;20752;-75
2023/09/25 02:37:09;;;;;;;0.03;0.03;;;;;;;14.70;100.00;100335.69;4853695;29;20029;-74
2023/09/25 02:39:35;;;;;;;0.00;0.00;;;;;;;14.58;100.00;100335.28;4856451;29;20495;-73
2023/09/25 02:42:00;;;;;;;0.00;0.00;;;;;;;14.46;100.00;100339.25;4830587;29;20033;-74
2023/09/25 02:44:26;;;;;;;0.00;0.00;;;;;;;14.35;100.00;100337.75;4853642;29;20029;-73
2023/09/25 02:46:53;;;;;;;0.00;0.00;;;;;;;14.26;100.00;100328.50;4808912;29;21407;-73
2023/09/25 02:49:19;;;;;;;0.00;0.00;;;;;;;14.21;100.00;100331.34;4855922;29;20472;-73
2023/09/25 02:51:44;;;;;;;0.00;0.00;;;;;;;14.19;100.00;100344.53;4845044;29;20032;-73
2023/09/25 02:54:09;;;;;;;0.00;0.00;;;;;;;14.07;100.00;100339.44;4857006;29;20033;-73
2023/09/25 02:56:35;;;;;;;0.00;0.00;;;;;;;14.01;100.00;100343.38;4836364;29;20038;-73
2023/09/25 02:59:00;;;;;;;0.00;0.00;;;;;;;13.95;100.00;100351.66;4844592;29;20056;-74
2023/09/25 03:01:29;;;;;;;0.00;0.00;;;;;;;13.88;100.00;100355.88;4846420;29;20041;-74
2023/09/25 03:03:54;;;;;;;0.00;0.00;;;;;;;13.88;100.00;100350.38;4842319;29;20045;-73
2023/09/25 03:06:21;;;;;;;0.00;0.00;;;;;;;13.82;100.00;100357.84;4864438;29;20057;-73
2023/09/25 03:08:46;;;;;;;0.00;0.00;;;;;;;13.79;100.00;100348.25;4839543;29;20029;-73
2023/09/25 03:11:11;;;;;;;0.10;0.10;;;;;;;13.82;100.00;100359.78;4825642;29;20029;-73
2023/09/25 03:13:39;;;;;;;0.00;0.00;;;;;;;13.79;100.00;100356.47;4848230;29;20438;-73
2023/09/25 03:16:15;;;;;;;0.00;0.00;;;;;;;13.76;100.00;100351.56;4820749;29;20036;-73
2023/09/25 03:18:41;;;;;;;0.00;0.00;;;;;;;13.74;100.00;100359.28;4852728;29;20039;-73
2023/09/25 03:21:14;;;;;;;0.00;0.00;;;;;;;13.74;100.00;100362.03;4831860;29;20591;-73
2023/09/25 03:23:40;;;;;;;0.00;0.00;;;;;;;13.71;100.00;100362.63;4838870;29;20484;-74
2023/09/25 03:26:16;;;;;;;0.00;0.00;;;;;;;13.66;100.00;100361.84;4859553;29;20014;-74
2023/09/25 03:28:45;;;;;;;0.00;0.00;;;;;;;13.65;100.00;100369.25;4846126;29;20169;-74
2023/09/25 03:31:11;;;;;;;0.00;0.00;;;;;;;13.58;100.00;100377.00;4844170;29;20053;-74
2023/09/25 03:33:38;;;;;;;0.00;0.00;;;;;;;13.55;100.00;100374.84;4857030;29;20029;-72
2023/09/25 03:36:04;;;;;;;0.00;0.00;;;;;;;13.52;100.00;100380.91;4856904;29;20535;-73
2023/09/25 03:38:30;;;;;;;0.00;0.00;;;;;;;13.33;100.00;100369.75;4851494;29;20033;-73
2023/09/25 03:40:55;;;;;;;0.00;0.00;;;;;;;13.32;100.00;100390.91;4846981;29;20044;-73
2023/09/25 03:43:21;;;;;;;0.00;0.00;;;;;;;13.18;100.00;100392.66;4855939;29;20045;-73
2023/09/25 03:45:47;;;;;;;0.00;0.00;;;;;;;13.08;100.00;100399.84;4860727;29;20061;-74
2023/09/25 03:48:13;;;;;;;0.00;0.00;;;;;;;13.02;100.00;100405.66;4831617;29;20033;-73
2023/09/25 03:50:38;;;;;;;0.00;0.00;;;;;;;12.92;100.00;100406.50;4863744;29;20029;-73
2023/09/25 03:53:03;;;;;;;0.00;0.00;;;;;;;12.85;100.00;100409.59;4834656;29;20030;-73
2023/09/25 03:55:29;;;;;;;0.00;0.00;;;;;;;12.83;100.00;100403.53;4850005;29;20065;-72
2023/09/25 03:57:55;;;;;;;0.00;0.00;;;;;;;12.83;100.00;100409.03;4853122;29;20041;-73
2023/09/25 04:00:20;;;;;;;0.00;0.00;;;;;;;12.82;100.00;100407.41;4855697;29;20516;-73
2023/09/25 04:02:46;;;;;;;0.00;0.00;;;;;;;12.79;100.00;100412.63;4860487;29;20483;-72
2023/09/25 04:05:14;;;;;;;0.00;0.00;;;;;;;12.85;100.00;100417.81;4829557;29;20029;-74
2023/09/25 04:07:40;;;;;;;0.00;0.00;;;;;;;12.86;100.00;100407.66;4854693;29;20037;-73
2023/09/25 04:10:07;;;;;;;0.00;0.00;;;;;;;12.90;100.00;100419.72;4862573;29;20033;-73
2023/09/25 04:12:35;;;;;;;0.00;0.00;;;;;;;12.97;100.00;100414.72;4854325;29;20029;-73
2023/09/25 04:15:01;;;;;;;0.00;0.00;;;;;;;13.02;100.00;100420.19;4818312;29;20038;-73
2023/09/25 04:17:27;;;;;;;0.00;0.00;;;;;;;12.93;100.00;100408.97;4861179;29;20041;-73
2023/09/25 04:19:53;;;;;;;0.00;0.00;;;;;;;13.04;100.00;100420.75;4836246;29;20068;-73
2023/09/25 04:22:19;;;;;;;0.00;0.00;;;;;;;13.02;100.00;100414.69;4842113;29;20057;-73
2023/09/25 04:24:44;;;;;;;0.00;0.00;;;;;;;12.98;100.00;100419.13;4834038;29;20065;-72
2023/09/25 04:27:10;;;;;;;0.00;0.00;;;;;;;13.02;100.00;100420.19;4855289;29;20038;-72
2023/09/25 04:29:38;;;;;;;0.00;0.00;;;;;;;13.02;100.00;100422.94;4835664;29;20037;-72
2023/09/25 04:32:03;;;;;;;0.00;0.00;;;;;;;12.97;100.00;100420.22;4834699;29;20093;-72
2023/09/25 04:34:29;;;;;;;0.00;0.00;;;;;;;12.96;100.00;100418.56;4852809;29;20031;-72
2023/09/25 04:36:54;;;;;;;0.00;0.00;;;;;;;12.93;100.00;100422.69;4840868;29;20077;-73
2023/09/25 04:39:20;;;;;;;0.03;0.03;;;;;;;12.94;100.00;100429.03;4841204;29;20124;-73
2023/09/25 04:41:47;;;;;;;0.00;0.00;;;;;;;12.87;100.00;100431.25;4830076;29;20037;-71
2023/09/25 04:44:12;;;;;;;0.00;0.00;;;;;;;12.83;100.00;100430.16;4857646;29;20537;-73
2023/09/25 04:46:38;;;;;;;0.00;0.00;;;;;;;12.80;100.00;100441.72;4837998;29;20112;-72
2023/09/25 04:49:07;;;;;;;0.00;0.00;;;;;;;12.68;100.00;100445.59;4853863;29;20040;-73
2023/09/25 04:51:33;;;;;;;0.00;0.00;;;;;;;12.62;100.00;100446.72;4836713;29;21484;-73
2023/09/25 04:54:00;;;;;;;0.00;0.00;;;;;;;12.56;100.00;100458.81;4856330;29;20533;-73
2023/09/25 04:56:27;;;;;;;0.00;0.00;;;;;;;12.48;100.00;100457.44;4814359;29;20045;-72
2023/09/25 04:58:52;;;;;;;0.00;0.00;;;;;;;12.51;100.00;100462.38;4842615;29;20180;-73
2023/09/25 05:01:18;;;;;;;0.00;0.00;;;;;;;12.50;100.00;100462.63;4842371;29;20797;-73
2023/09/25 05:03:43;;;;;;;0.00;0.00;;;;;;;12.49;100.00;100459.06;4841783;29;20033;-73
2023/09/25 05:06:12;;;;;;;0.00;0.00;;;;;;;12.48;100.00;100468.41;4849677;29;20052;-72
2023/09/25 05:08:38;;;;;;;0.00;0.00;;;;;;;12.47;100.00;100468.69;4848770;29;20060;-72
2023/09/25 05:11:08;;;;;;;0.00;0.00;;;;;;;12.40;100.00;100471.72;4836805;29;20116;-72
2023/09/25 05:13:33;;;;;;;0.00;0.00;;;;;;;12.34;100.00;100479.13;4859846;29;20067;-71
2023/09/25 05:16:03;;;;;;;0.00;0.00;;;;;;;12.34;100.00;100481.88;4853380;29;20104;-72
2023/09/25 05:18:29;;;;;;;0.00;0.00;;;;;;;12.38;100.00;100491.19;4841167;29;20037;-73
2023/09/25 05:20:55;;;;;;;0.00;0.00;;;;;;;12.32;100.00;100489.53;4839156;29;20033;-74
2023/09/25 05:23:21;;;;;;;0.00;0.00;;;;;;;12.34;100.00;100495.59;4846298;29;20444;-72
2023/09/25 05:25:47;;;;;;;0.00;0.00;;;;;;;12.31;100.00;100496.13;4816180;29;20032;-73
2023/09/25 05:28:12;;;;;;;0.00;0.00;;;;;;;12.35;100.00;100508.22;4863558;29;20056;-76
2023/09/25 05:30:38;;;;;;;0.00;0.00;;;;;;;12.31;100.00;100504.38;4843477;29;20065;-74
2023/09/25 05:33:04;;;;;;;0.00;0.00;;;;;;;12.31;100.00;100501.63;4855600;29;20108;-73
2023/09/25 05:35:30;;;;;;;0.00;0.00;;;;;;;12.25;100.00;100491.78;4867307;29;20062;-72
2023/09/25 05:37:56;;;;;;;0.00;0.00;;;;;;;12.19;100.00;100503.81;4849958;29;20131;-71
2023/09/25 05:40:22;;;;;;;0.00;0.00;;;;;;;12.08;100.00;100505.75;4834790;29;20132;-74
2023/09/25 05:42:50;;;;;;;0.00;0.00;;;;;;;12.04;100.00;100508.19;4847730;29;20112;-74
2023/09/25 05:45:17;;;;;;;0.00;0.00;;;;;;;11.97;100.00;100502.19;4865135;29;20057;-74
2023/09/25 05:47:44;;;;;;;0.00;0.00;;;;;;;11.93;100.00;100516.66;4839181;29;20101;-72
2023/09/25 05:50:11;;;;;;;0.00;0.00;;;;;;;11.87;100.00;100518.56;4852469;29;20043;-75
2023/09/25 05:52:38;;;;;;;0.00;0.00;;;;;;;11.88;100.00;100520.22;4852106;29;20469;-74
2023/09/25 05:55:05;;;;;;;0.00;0.00;;;;;;;11.82;100.00;100518.56;4812623;29;20037;-73
2023/09/25 05:57:31;;;;;;;0.00;0.00;;;;;;;11.86;100.00;100516.94;4848361;29;20169;-74
2023/09/25 05:59:57;;;;;;;0.00;0.00;;;;;;;11.88;100.00;100526.53;4853007;29;20519;-74
2023/09/25 06:02:22;;;;;;;0.00;0.00;;;;;;;11.88;100.00;100529.28;4844951;29;20173;-74
2023/09/25 06:04:48;;;;;;;0.00;0.00;;;;;;;11.78;100.00;100521.03;4861957;29;20128;-74
2023/09/25 06:07:20;;;;;;;0.00;0.00;;;;;;;11.84;100.00;100535.56;4845724;29;20036;-75
2023/09/25 06:09:46;;;;;;;0.00;0.00;;;;;;;11.83;100.00;100539.41;4845732;29;20176;-74
2023/09/25 06:12:13;;;;;;;0.00;0.00;;;;;;;11.86;100.00;100545.16;4840784;29;20962;-75
2023/09/25 06:14:39;;;;;;;0.00;0.00;;;;;;;11.84;100.00;100541.88;4816721;29;20030;-74
2023/09/25 06:17:04;;;;;;;0.00;0.00;;;;;;;11.88;100.00;100542.97;4859448;29;20040;-74
2023/09/25 06:19:32;;;;;;;0.00;0.00;;;;;;;11.95;100.00;100544.66;4843535;29;20473;-74
2023/09/25 06:21:58;;;;;;;0.00;0.00;;;;;;;11.91;100.00;100541.59;4823688;29;20072;-75
2023/09/25 06:24:23;;;;;;;0.00;0.00;;;;;;;12.04;100.00;100562.19;4833889;29;20069;-75
2023/09/25 06:26:49;;;;;;;0.10;0.10;;;;;;;12.00;100.00;100556.47;4862069;29;20033;-75
2023/09/25 06:29:15;;;;;;;0.00;0.00;;;;;;;12.10;100.00;100571.25;4837952;29;20029;-74
2023/09/25 06:31:41;;;;;;;0.00;0.00;;;;;;;12.14;100.00;100578.66;4834467;29;20077;-73
2023/09/25 06:34:08;;;;;;;0.00;0.00;;;;;;;12.16;100.00;100586.59;4840748;29;20037;-73
2023/09/25 06:36:37;;;;;;;0.00;0.00;;;;;;;12.21;100.00;100594.84;4828468;29;20140;-73
2023/09/25 06:39:08;;;;;;;0.00;0.00;;;;;;;12.23;100.00;100592.66;4863512;29;20048;-73
2023/09/25 06:41:34;;;;;;;0.03;0.03;;;;;;;12.23;100.00;100592.66;4845100;29;20037;-72
2023/09/25 06:44:00;;;;;;;0.00;0.00;;;;;;;12.27;100.00;100591.00;4848229;29;20472;-75
2023/09/25 06:46:25;;;;;;;0.00;0.00;;;;;;;12.32;100.00;100585.50;4845264;29;20093;-74
2023/09/25 06:48:51;;;;;;;0.00;0.00;;;;;;;12.43;100.00;100602.00;4866702;29;20040;-73
2023/09/25 06:51:19;;;;;;;0.00;0.00;;;;;;;12.47;100.00;100583.88;4853534;29;20040;-73
2023/09/25 06:53:45;;;;;;;0.00;0.00;;;;;;;12.53;100.00;100582.78;4843848;29;20425;-73
2023/09/25 06:56:11;;;;;;;0.00;0.00;;;;;;;12.60;100.00;100590.72;4846325;29;20029;-73
2023/09/25 06:58:37;;;;;;;0.00;0.00;;;;;;;12.60;100.00;100583.34;4845851;29;20048;-72
2023/09/25 07:01:03;;;;;;;0.00;0.00;;;;;;;12.68;100.00;100580.03;4862686;29;20041;-72
2023/09/25 07:03:29;;;;;;;0.00;0.00;;;;;;;12.80;100.00;100589.88;4842267;29;20033;-71
2023/09/25 07:05:55;;;;;;;0.00;0.00;;;;;;;12.83;100.00;100592.06;4841670;29;20037;-74
2023/09/25 07:08:21;;;;;;;0.00;0.00;;;;;;;12.86;100.00;100583.28;4843967;29;20112;-72
2023/09/25 07:10:48;;;;;;;0.00;0.00;;;;;;;12.99;100.00;100599.16;4852599;29;20025;-73
2023/09/25 07:13:15;;;;;;;0.00;0.00;;;;;;;13.12;100.00;100596.97;4855235;29;20508;-74
2023/09/25 07:15:40;;;;;;;0.00;0.00;;;;;;;13.17;100.00;100594.19;4824274;29;20042;-73
2023/09/25 07:18:06;;;;;;;0.00;0.00;;;;;;;13.31;100.00;100608.97;4839402;29;20037;-72
2023/09/25 07:20:32;;;;;;;0.00;0.00;;;;;;;13.29;100.00;100602.94;4817928;29;20033;-72
2023/09/25 07:22:57;;;;;;;0.00;0.00;;;;;;;13.37;100.00;100612.56;4850294;29;20040;-72
2023/09/25 07:25:23;;;;;;;0.00;0.00;;;;;;;13.37;100.00;100594.13;4865784;29;20044;-73
2023/09/25 07:27:48;;;;;;;0.00;0.00;;;;;;;13.41;100.00;100599.91;4840651;29;20045;-72
2023/09/25 07:30:14;;;;;;;0.00;0.00;;;;;;;13.64;100.00;100612.19;4853873;29;20029;-73
2023/09/25 07:32:42;;;;;;;0.00;0.00;;;;;;;13.97;100.00;100612.53;4842341;29;20401;-73
2023/09/25 07:35:15;;;;;;;0.00;0.00;;;;;;;14.37;100.00;100616.13;4845719;29;20170;-74
2023/09/25 07:37:44;;;;;;;0.00;0.00;;;;;;;14.51;100.00;100615.47;4854158;29;20029;-73
2023/09/25 07:40:13;;;;;;;0.00;0.00;;;;;;;14.34;100.00;100619.47;4844393;29;20029;-74
2023/09/25 07:42:40;;;;;;;0.00;0.00;;;;;;;14.31;100.00;100615.34;4862128;29;20025;-73
2023/09/25 07:45:11;;;;;;;0.00;0.00;;;;;;;14.74;100.00;100613.94;4852205;29;20025;-73
2023/09/25 07:47:41;;;;;;;0.00;0.00;;;;;;;15.43;100.00;100622.81;4868584;29;20028;-73
2023/09/25 07:50:11;;;;;;;0.00;0.00;;;;;;;16.21;100.00;100623.47;4832719;29;20029;-73
2023/09/25 07:52:43;;;;;;;0.00;0.00;;;;;;;17.79;100.00;100625.59;4861478;29;20388;-73
2023/09/25 07:58:39;;;;;;;0.00;0.00;;;;;;;20.99;100.00;100640.56;4784326;29;20458;-73
2023/09/25 08:01:08;;;;;;;0.00;0.00;;;;;;;21.92;100.00;100645.59;4800195;29;20056;-73
2023/09/25 08:03:34;;;;;;;0.00;0.00;;;;;;;22.80;100.00;100646.50;4827176;29;20057;-73
2023/09/25 08:06:05;;;;;;;0.00;0.00;;;;;;;23.84;97.24;100646.38;4845829;29;20036;-73
2023/09/25 08:08:30;;;;;;;0.00;0.00;;;;;;;25.13;90.65;100648.50;4835451;29;20021;-73
2023/09/25 08:10:56;;;;;;;0.00;0.00;;;;;;;26.53;82.92;100656.53;4815791;29;20113;-73
2023/09/25 08:13:22;;;;;;;0.00;0.00;;;;;;;27.66;78.78;100649.81;4837368;29;20032;-72
2023/09/25 08:15:47;;;;;;;0.00;0.00;;;;;;;28.68;74.33;100646.34;4820786;29;20029;-72
2023/09/25 08:18:14;;;;;;;0.00;0.00;;;;;;;29.46;71.48;100653.19;4856087;29;20030;-72
2023/09/25 08:20:39;;;;;;;0.00;0.00;;;;;;;30.48;66.63;100663.91;4856615;29;20024;-74
2023/09/25 08:23:11;;;;;;;0.00;0.00;;;;;;;30.45;66.04;100663.47;4837053;29;20120;-73
2023/09/25 08:25:36;;;;;;;0.00;0.00;;;;;;;31.04;65.57;100664.47;4852000;29;20174;-72
2023/09/25 08:28:02;;;;;;;0.00;0.00;;;;;;;32.09;63.27;100660.38;4856774;29;20543;-71
2023/09/25 08:30:27;;;;;;;0.00;0.00;;;;;;;32.77;59.28;100673.47;4843281;29;20030;-74
2023/09/25 08:32:53;;;;;;;0.00;0.00;;;;;;;31.68;61.56;100660.88;4842470;29;20069;-72
2023/09/25 08:35:19;;;;;;;0.00;0.00;;;;;;;31.33;62.92;100685.06;4841801;29;20032;-71
2023/09/25 08:37:45;;;;;;;0.00;0.00;;;;;;;31.24;63.71;100681.84;4846901;29;20049;-73
2023/09/25 08:40:11;;;;;;;0.00;0.00;;;;;;;31.92;63.01;100686.66;4849286;29;20449;-74
2023/09/25 08:42:37;;;;;;;0.00;0.00;;;;;;;32.45;60.56;100697.06;4851434;29;20028;-73
2023/09/25 08:45:04;;;;;;;0.00;0.00;;;;;;;32.95;58.64;100690.34;4840944;29;21413;-73
2023/09/25 08:47:34;;;;;;;0.00;0.00;;;;;;;32.35;58.20;100697.91;4849974;29;20037;-73
2023/09/25 08:50:00;;;;;;;0.00;0.00;;;;;;;32.30;62.06;100690.66;4847932;29;20045;-73
2023/09/25 08:52:26;;;;;;;0.00;0.00;;;;;;;33.39;55.03;100703.00;4852806;29;20029;-72
2023/09/25 08:54:52;;;;;;;0.00;0.00;;;;;;;34.06;56.43;100704.88;4846471;29;20036;-73
2023/09/25 08:57:19;;;;;;;0.00;0.00;;;;;;;35.06;53.13;100696.34;4844826;29;20037;-73
2023/09/25 08:59:46;;;;;;;0.00;0.00;;;;;;;35.81;51.72;100711.41;4832352;29;20147;-73
2023/09/25 09:02:12;;;;;;;0.00;0.00;;;;;;;35.60;51.20;100704.84;4854277;29;20120;-72
2023/09/25 09:04:40;;;;;;;0.00;0.00;;;;;;;33.18;57.29;100708.84;4851094;29;20037;-74
2023/09/25 09:07:08;;;;;;;0.00;0.00;;;;;;;31.29;61.18;100709.69;4829885;29;20472;-73
2023/09/25 09:09:34;;;;;;;0.00;0.00;;;;;;;29.80;66.29;100700.91;4845503;29;20281;-73
2023/09/25 09:12:00;;;;;;;0.00;0.00;;;;;;;28.10;71.60;100712.31;4864895;29;20385;-73
2023/09/25 09:14:35;;;;;;;0.00;0.00;;;;;;;27.89;75.78;100713.56;4860945;29;20377;-72
2023/09/25 09:17:04;;;;;;;0.00;0.00;;;;;;;29.20;74.93;100720.50;4858460;29;20365;-73
2023/09/25 09:19:53;;;;;;;0.00;0.00;;;;;;;30.00;63.50;100719.22;4856282;29;20032;-73
2023/09/25 09:22:21;;;;;;;0.00;0.00;;;;;;;29.10;65.69;100723.22;4849695;29;20027;-73
2023/09/25 09:24:56;;;;;;;0.00;0.00;;;;;;;28.73;64.28;100716.38;4855635;29;20080;-73
2023/09/25 09:27:24;;;;;;;0.00;0.00;;;;;;;28.06;71.15;100719.88;4859847;29;20040;-73
2023/09/25 09:29:52;;;;;;;0.00;0.00;;;;;;;27.81;66.29;100731.50;4867637;29;20033;-72
2023/09/25 09:32:18;;;;;;;0.00;0.00;;;;;;;27.51;71.03;100726.56;4862796;29;20064;-72
2023/09/25 09:34:46;;;;;;;0.00;0.00;;;;;;;28.78;70.92;100718.03;4861952;29;20055;-71
2023/09/25 09:37:13;;;;;;;0.00;0.00;;;;;;;29.55;63.22;100726.88;4862259;29;20041;-72
2023/09/25 09:39:45;;;;;;;0.00;0.00;;;;;;;27.37;63.60;100726.34;4833517;29;21346;-72
2023/09/25 09:42:11;;;;;;;0.00;0.00;;;;;;;26.59;67.64;100722.41;4855616;29;20121;-72
2023/09/25 09:44:36;;;;;;;0.00;0.00;;;;;;;26.91;64.63;100722.28;4848985;29;20120;-72
2023/09/25 09:47:06;;;;;;;0.00;0.00;;;;;;;28.61;65.61;100731.50;4847751;29;20052;-73
2023/09/25 09:49:37;;;;;;;0.00;0.00;;;;;;;31.43;58.73;100729.47;4839721;29;20044;-71
2023/09/25 09:52:03;;;;;;;0.00;0.00;;;;;;;34.70;47.45;100743.06;4848413;29;20111;-72
2023/09/25 09:54:36;;;;;;;0.00;0.00;;;;;;;35.30;44.06;100740.63;4840022;29;20120;-72
2023/09/25 09:57:02;;;;;;;0.00;0.00;;;;;;;34.06;47.57;100738.91;4852031;29;20104;-72
2023/09/25 09:59:28;;;;;;;0.00;0.00;;;;;;;33.79;44.35;100752.94;4857574;29;20139;-73
2023/09/25 10:01:56;;;;;;;0.00;0.00;;;;;;;33.65;46.21;100751.81;4857223;29;20039;-73
2023/09/25 10:04:22;;;;;;;0.00;0.00;;;;;;;33.58;44.69;100744.16;4846942;29;20161;-73
2023/09/25 10:06:51;;;;;;;0.00;0.00;;;;;;;32.08;46.96;100743.63;4864888;29;20108;-73
2023/09/25 10:09:18;;;;;;;0.00;0.00;;;;;;;30.16;53.56;100749.94;4864274;29;20033;-72
2023/09/25 10:11:46;;;;;;;0.00;0.00;;;;;;;28.87;50.50;100749.50;4871498;29;20040;-71
2023/09/25 10:14:12;;;;;;;0.00;0.00;;;;;;;29.04;48.29;100748.91;4851634;29;20021;-73
2023/09/25 10:16:58;;;;;;;0.00;0.00;;;;;;;29.48;50.72;100755.78;4849207;29;20494;-72
2023/09/25 10:19:53;;;;;;;0.00;0.00;;;;;;;29.92;43.57;100763.47;4853218;29;20037;-75
2023/09/25 10:22:22;;;;;;;0.00;0.00;;;;;;;28.38;49.22;100754.84;4852222;29;20429;-74
2023/09/25 10:25:09;;;;;;;0.00;0.00;;;;;;;30.52;45.36;100753.00;4860444;29;20031;-75
2023/09/25 10:27:36;;;;;;;0.00;0.00;;;;;;;31.66;43.24;100759.41;4849576;29;20074;-75
2023/09/25 10:30:08;;;;;;;0.00;0.00;;;;;;;29.56;45.64;100742.59;4865743;29;20029;-75
2023/09/25 10:32:37;;;;;;;0.00;0.00;;;;;;;28.82;45.18;100744.22;4855366;29;21274;-75
2023/09/25 10:35:47;;;;;;;0.00;0.00;;;;;;;27.37;49.58;100754.44;4855071;29;20104;-75
2023/09/25 10:38:19;;;;;;;0.00;0.00;;;;;;;26.36;49.38;100757.94;4850402;29;20677;-76
2023/09/25 10:40:46;;;;;;;0.00;0.00;;;;;;;27.68;48.97;100756.97;4828880;29;20100;-75
2023/09/25 10:43:22;;;;;;;0.00;0.00;;;;;;;31.35;41.15;100749.66;4845019;29;20048;-75
2023/09/25 10:45:48;;;;;;;0.00;0.00;;;;;;;34.00;37.38;100751.94;4866872;29;20033;-74
2023/09/25 10:48:13;;;;;;;0.00;0.00;;;;;;;32.82;35.22;100748.69;4836749;29;20057;-75
2023/09/25 10:50:47;;;;;;;0.00;0.00;;;;;;;34.54;35.24;100745.72;4841727;29;20099;-75
2023/09/25 10:53:16;;;;;;;;;;;;;;;35.81;30.09;100752.03;4847462;29;20044;-75
2023/09/25 10:55:43;;;;;;;0.00;0.00;;;;;;;36.98;29.68;100746.50;4860232;29;19916;-76
2023/09/25 10:58:12;;;;;;;0.00;0.00;;;;;;;36.77;25.90;100735.56;4853616;29;20392;-76
2023/09/25 11:00:39;;;;;;;0.00;0.00;;;;;;;34.32;28.52;100753.69;4860025;29;20532;-75
2023/09/25 11:03:06;;;;;;;0.00;0.00;;;;;;;32.48;30.62;100746.38;4857911;29;20037;-76
2023/09/25 11:05:36;;;;;;;0.00;0.00;;;;;;;28.84;36.05;100736.19;4849969;29;20532;-76
2023/09/25 11:08:06;;;;;;;0.00;0.00;;;;;;;27.72;41.48;100750.63;4846732;29;20024;-76
2023/09/25 11:10:35;;;;;;;0.00;0.00;;;;;;;31.10;34.04;100737.09;4851239;29;20025;-75
2023/09/25 11:13:01;;;;;;;0.00;0.00;;;;;;;32.27;30.57;100747.22;4843826;29;20045;-75
2023/09/25 11:15:28;;;;;;;0.00;0.00;;;;;;;30.07;33.54;100744.63;4834427;29;20028;-75
2023/09/25 11:17:57;;;;;;;0.00;0.00;;;;;;;27.72;36.66;100743.00;4854818;29;20049;-75
2023/09/25 11:20:31;;;;;;;0.00;0.00;;;;;;;26.69;38.39;100749.03;4845712;29;20050;-74
2023/09/25 11:23:03;;;;;;;0.00;0.00;;;;;;;25.85;40.30;100734.31;4855751;29;20036;-74